createdAt,value
2022-11-28T00:05:01.263Z,147.6
2022-11-28T00:10:01.132Z,149.0
2022-11-28T00:15:01.328Z,151.4
2022-11-28T00:20:01.180Z,152.7
2022-11-28T00:25:01.303Z,154.4
2022-11-28T00:30:01.170Z,155.2
2022-11-28T00:35:01.354Z,159.6
2022-11-28T00:40:01.177Z,162.4
2022-11-28T00:50:01.262Z,158.7
2022-11-28T00:55:01.331Z,154.4
2022-11-28T01:00:01.178Z,151.6
2022-11-28T01:05:06.256Z,148.0
2022-11-28T01:10:01.290Z,145.4
2022-11-28T01:15:01.502Z,145.0
2022-11-28T01:20:01.125Z,146.3
2022-11-28T01:25:01.586Z,147.8
2022-11-28T01:30:01.124Z,149.0
2022-11-28T01:35:01.313Z,150.6
2022-11-28T01:40:01.142Z,151.1
2022-11-28T01:45:01.219Z,154.4
2022-11-28T01:50:01.158Z,152.1
2022-11-28T02:00:01.418Z,151.5
2022-11-28T02:05:01.333Z,148.1
2022-11-28T02:10:01.169Z,148.8
2022-11-28T02:15:01.236Z,145.1
2022-11-28T02:30:01.413Z,158.6
2022-11-28T02:35:01.351Z,151.3
2022-11-28T02:50:01.941Z,159.4
2022-11-28T03:10:01.870Z,141.6
2022-11-28T03:15:01.963Z,137.1
2022-11-28T03:20:01.145Z,140.7
2022-11-28T03:45:01.956Z,141.9
2022-11-28T03:50:01.683Z,137.1
2022-11-28T03:55:01.761Z,140.8
2022-11-28T04:00:01.675Z,139.0
2022-11-28T04:05:01.862Z,136.7
2022-11-28T04:20:01.443Z,133.0
2022-11-28T04:25:01.483Z,140.6
2022-11-28T04:30:01.448Z,142.9
2022-11-28T04:35:01.373Z,144.7
2022-11-28T04:40:01.282Z,143.9
2022-11-28T04:45:02.516Z,147.3
2022-11-28T04:50:01.273Z,146.9
2022-11-28T04:55:01.352Z,149.4
2022-11-28T05:10:01.452Z,162.6
2022-11-28T05:15:01.257Z,158.6
2022-11-28T05:20:01.062Z,165.4
2022-11-28T05:25:01.130Z,169.0
2022-11-28T05:30:01.272Z,166.8
2022-11-28T05:35:01.218Z,161.4
2022-11-28T05:40:01.144Z,158.3
2022-11-28T05:45:01.149Z,150.2
2022-11-28T05:50:01.162Z,146.7
2022-11-28T05:55:01.136Z,147.7
2022-11-28T06:00:00.996Z,150.8
2022-11-28T06:05:11.390Z,157.5
2022-11-28T06:10:01.096Z,161.1
2022-11-28T06:15:01.077Z,166.9
2022-11-28T06:20:01.016Z,170.8
2022-11-28T06:25:01.154Z,177.9
2022-11-28T06:30:01.143Z,181.5
2022-11-28T06:35:01.153Z,179.9
2022-11-28T06:40:01.036Z,165.7
2022-11-28T06:45:01.397Z,157.6
2022-11-28T06:50:01.142Z,147.4
2022-11-28T06:55:01.144Z,135.9
2022-11-28T07:00:01.018Z,135.6
2022-11-28T07:05:01.114Z,143.2
2022-11-28T07:10:01.141Z,146.9
2022-11-28T07:15:01.078Z,148.8
2022-11-28T07:20:01.095Z,149.8
2022-11-28T07:25:01.528Z,146.8
2022-11-28T07:30:01.149Z,144.8
2022-11-28T07:35:01.139Z,143.3
2022-11-28T07:40:01.010Z,135.7
2022-11-28T07:45:01.153Z,129.5
2022-11-28T07:50:01.034Z,125.2
2022-11-28T07:55:01.076Z,117.0
2022-11-28T08:00:01.003Z,112.2
2022-11-28T08:05:01.130Z,123.6
2022-11-28T08:10:01.029Z,131.6
2022-11-28T08:15:01.130Z,138.5
2022-11-28T08:20:00.999Z,151.7
2022-11-28T08:25:01.129Z,161.3
2022-11-28T08:30:01.088Z,162.7
2022-11-28T08:35:01.064Z,164.7
2022-11-28T08:40:01.314Z,170.3
2022-11-28T08:45:01.691Z,171.5
2022-11-28T08:50:01.022Z,164.3
2022-11-28T08:55:06.119Z,158.9
2022-11-28T09:00:01.353Z,156.2
2022-11-28T09:05:01.206Z,152.4
2022-11-28T09:10:01.067Z,144.3
2022-11-28T09:15:01.328Z,146.2
2022-11-28T09:20:01.067Z,156.8
2022-11-28T09:25:01.128Z,165.6
2022-11-28T09:30:01.171Z,170.0
2022-11-28T09:35:01.213Z,165.7
2022-11-28T09:40:15.933Z,160.1
2022-11-28T09:45:01.160Z,146.3
2022-11-28T09:50:01.126Z,132.9
2022-11-28T09:55:01.266Z,120.9
2022-11-28T10:00:01.251Z,121.6
2022-11-28T10:05:01.261Z,120.4
2022-11-28T10:10:02.304Z,124.2
2022-11-28T10:30:01.816Z,160.6
2022-11-28T10:35:01.626Z,165.5
2022-11-28T10:40:01.564Z,149.6
2022-11-28T11:00:01.213Z,214.4
2022-11-28T11:05:01.151Z,229.8
2022-11-28T11:10:00.938Z,207.6
2022-11-28T11:30:01.778Z,261.2
2022-11-28T11:50:01.183Z,203.2
2022-11-28T11:55:01.170Z,213.0
2022-11-28T12:00:01.153Z,201.8
2022-11-28T12:05:06.177Z,188.9
2022-11-28T12:15:01.095Z,191.7
2022-11-28T12:20:01.078Z,188.4
2022-11-28T12:40:00.997Z,191.8
2022-11-28T12:45:00.934Z,180.6
2022-11-28T12:50:00.849Z,174.4
2022-11-28T12:55:00.948Z,170.7
2022-11-28T13:10:01.582Z,149.2
2022-11-28T13:15:02.593Z,160.6
2022-11-28T13:20:01.366Z,157.1
2022-11-28T13:40:01.058Z,191.4
2022-11-28T13:45:06.064Z,180.8
2022-11-28T14:00:07.699Z,188.4
2022-11-28T14:05:01.526Z,178.0
2022-11-28T14:10:01.726Z,223.3
2022-11-28T14:15:01.519Z,218.0
2022-11-28T14:30:01.070Z,174.0
2022-11-28T14:50:01.670Z,259.4
2022-11-28T15:10:07.176Z,176.6
2022-11-28T15:15:01.140Z,206.7
2022-11-28T15:20:00.949Z,192.4
2022-11-28T15:25:01.061Z,185.0
2022-11-28T15:40:01.719Z,224.4
2022-11-28T15:45:01.659Z,216.2
2022-11-28T15:50:01.544Z,208.5
2022-11-28T16:10:02.278Z,155.8
2022-11-28T16:20:01.217Z,165.0
2022-11-28T16:25:01.204Z,172.3
2022-11-28T16:30:01.177Z,174.8
2022-11-28T16:50:01.026Z,170.4
2022-11-28T16:55:00.927Z,192.6
2022-11-28T17:10:01.985Z,186.0
2022-11-28T17:15:01.391Z,179.5
2022-11-28T17:20:01.332Z,181.5
2022-11-28T17:25:01.453Z,179.6
2022-11-28T17:30:01.335Z,175.4
2022-11-28T17:35:01.393Z,171.1
2022-11-28T17:40:01.292Z,170.6
2022-11-28T17:45:01.473Z,160.0
2022-11-28T17:50:01.392Z,154.2
2022-11-28T17:55:06.278Z,151.2
2022-11-28T18:00:01.293Z,148.9
2022-11-28T18:05:01.410Z,142.4
2022-11-28T18:10:01.656Z,143.0
2022-11-28T18:15:01.528Z,138.1
2022-11-28T18:20:01.260Z,136.0
2022-11-28T18:25:01.394Z,128.4
2022-11-28T18:30:01.322Z,128.7
2022-11-28T18:35:01.339Z,126.1
2022-11-28T18:40:04.058Z,129.2
2022-11-28T18:45:01.698Z,132.6
2022-11-28T18:50:01.287Z,136.8
2022-11-28T18:55:01.904Z,138.2
2022-11-28T19:00:01.465Z,140.4
2022-11-28T19:05:01.461Z,137.0
2022-11-28T19:10:01.273Z,132.0
2022-11-28T19:15:02.540Z,127.4
2022-11-28T19:20:01.409Z,125.6
2022-11-28T19:25:01.304Z,124.5
2022-11-28T19:30:01.250Z,131.1
2022-11-28T19:35:01.399Z,134.2
2022-11-28T19:40:02.949Z,137.8
2022-11-28T19:45:01.333Z,141.2
2022-11-28T19:50:01.224Z,148.2
2022-11-28T19:55:01.324Z,145.4
2022-11-28T20:00:01.203Z,149.2
2022-11-28T20:05:01.311Z,153.6
2022-11-28T20:10:01.194Z,151.3
2022-11-28T20:15:01.311Z,145.7
2022-11-28T20:20:01.151Z,150.6
2022-11-28T20:25:01.342Z,143.6
2022-11-28T20:30:02.195Z,144.0
2022-11-28T20:35:01.202Z,145.5
2022-11-28T20:40:01.155Z,148.0
2022-11-28T20:45:01.256Z,146.8
2022-11-28T20:50:01.382Z,148.5
2022-11-28T20:55:01.243Z,147.5
2022-11-28T21:00:01.109Z,148.0
2022-11-28T21:05:01.246Z,148.2
2022-11-28T21:10:01.128Z,147.4
2022-11-28T21:15:01.165Z,153.5
2022-11-28T21:25:06.293Z,149.5
2022-11-28T21:30:01.113Z,149.2
2022-11-28T21:40:01.222Z,148.9
2022-11-28T21:45:01.375Z,148.5
2022-11-28T21:50:01.374Z,147.7
2022-11-28T21:55:01.276Z,153.9
2022-11-28T22:00:01.160Z,153.0
2022-11-28T22:05:01.301Z,153.8
2022-11-28T22:10:01.142Z,152.8
2022-11-28T22:20:01.214Z,152.2
2022-11-28T22:25:01.305Z,153.0
2022-11-28T22:30:01.155Z,154.4
2022-11-28T22:35:01.218Z,154.3
2022-11-28T22:40:01.139Z,157.7
2022-11-28T22:45:01.242Z,160.3
2022-11-28T22:50:02.559Z,156.6
2022-11-28T22:55:01.284Z,152.9
2022-11-28T23:00:01.149Z,153.1
2022-11-28T23:15:01.262Z,146.6
2022-11-28T23:20:01.106Z,142.2
2022-11-28T23:25:01.170Z,142.1
2022-11-28T23:30:01.114Z,137.5
2022-11-28T23:35:01.206Z,133.0
2022-11-28T23:40:01.107Z,138.5
2022-11-28T23:45:01.236Z,140.8
2022-11-28T23:55:01.263Z,142.1
